Ansley, Louisiana
Current Conditions -  °F | °C
As of 4:15 AM on Monday 26 Jan 2015 (Local Time) from KRSN Reporting Station
Clear Clear  
Wind Chill: 39°   Ceiling: Unl
Heat Index: 42°   Visibility: 10mi
Dew Point: 33°   Wind: 5mph
Humidity: 71%   Direction: 340°NNW
Pressure: 30.14"   Gusts: NA
Location:  32.5075°N, 92.6828°W
Report Text: KRSN 261015Z AUTO 34004KT 10SM CLR 06/01 A3014 RMK AO2 T00570008
Loading
Personal Weather Stations






























Interactive Weather Map New forecast layout! Learn more

10-Day Weather Forecast

Advertisements
Track Severe Weather on mobile